< < Back
Terminal Aerodrome Forecast


Current Version              Previous Versions:   1  2  3  4  5  6  7  8  9  

Terminal Aerodrome Forecast

809
FTUS42 KTAE 251734
TAFDHN
TAF
KDHN 251734Z 2518/2618 11006KT P6SM SCT035
     FM260200 VRB04KT P6SM SCT250
     FM261500 12005KT P6SM VCTS SCT035CB=

Latest METAR

219
SAUS70 KWBC 261000 RRC
MTRDHN
METAR KDHN 260953Z AUTO 08006KT 10SM CLR 23/23 A3004 RMK AO2 SLP167
T02330228


USA.gov is the U.S. government's official web portal to all federal, state and local government web resources and services.